sensor_id;sensor_type;location;lat;lon;timestamp;pressure;altitude;pressure_sealevel;temperature;humidity
12486;BME280;6307;46.804;11.580;2023-02-18T00:01:28;-21021.44;;;5.64;97.07
12486;BME280;6307;46.804;11.580;2023-02-18T00:03:56;-21021.59;;;5.64;97.44
12486;BME280;6307;46.804;11.580;2023-02-18T00:06:29;-21024.00;;;5.72;98.49
12486;BME280;6307;46.804;11.580;2023-02-18T00:08:57;-21022.06;;;5.66;95.73
12486;BME280;6307;46.804;11.580;2023-02-18T00:11:27;-21017.84;;;5.52;95.61
12486;BME280;6307;46.804;11.580;2023-02-18T00:13:57;-21015.28;;;5.43;99.76
12486;BME280;6307;46.804;11.580;2023-02-18T00:16:26;-21016.19;;;5.46;100.00
12486;BME280;6307;46.804;11.580;2023-02-18T00:19:05;-21029.59;;;5.91;97.57
12486;BME280;6307;46.804;11.580;2023-02-18T00:21:34;-21031.25;;;5.96;91.18
12486;BME280;6307;46.804;11.580;2023-02-18T00:24:00;-21028.69;;;5.88;92.78
12486;BME280;6307;46.804;11.580;2023-02-18T00:26:28;-21026.13;;;5.79;94.49
12486;BME280;6307;46.804;11.580;2023-02-18T00:28:54;-21026.56;;;5.81;95.82
12486;BME280;6307;46.804;11.580;2023-02-18T00:31:28;-21029.44;;;5.90;100.00
12486;BME280;6307;46.804;11.580;2023-02-18T00:33:56;-21034.84;;;6.08;95.12
12486;BME280;6307;46.804;11.580;2023-02-18T00:36:23;-21032.44;;;6.00;96.65
12486;BME280;6307;46.804;11.580;2023-02-18T00:38:54;-21027.94;;;5.85;94.84
12486;BME280;6307;46.804;11.580;2023-02-18T00:41:26;-21023.25;;;5.70;95.49
12486;BME280;6307;46.804;11.580;2023-02-18T00:43:53;-21018.59;;;5.54;100.00
12486;BME280;6307;46.804;11.580;2023-02-18T00:46:20;-21015.13;;;5.43;100.00
12486;BME280;6307;46.804;11.580;2023-02-18T00:48:46;-21016.03;;;5.46;100.00
12486;BME280;6307;46.804;11.580;2023-02-18T00:51:12;-21025.22;;;5.76;100.00
12486;BME280;6307;46.804;11.580;2023-02-18T00:53:39;-21028.09;;;5.86;100.00
12486;BME280;6307;46.804;11.580;2023-02-18T00:56:06;-21030.03;;;5.92;99.27
12486;BME280;6307;46.804;11.580;2023-02-18T00:58:33;-21024.91;;;5.75;99.74
12486;BME280;6307;46.804;11.580;2023-02-18T01:01:00;-21021.59;;;5.64;100.00
12486;BME280;6307;46.804;11.580;2023-02-18T01:03:26;-21023.25;;;5.70;100.00
12486;BME280;6307;46.804;11.580;2023-02-18T01:05:53;-21019.81;;;5.58;100.00
12486;BME280;6307;46.804;11.580;2023-02-18T01:08:20;-21019.03;;;5.56;100.00
12486;BME280;6307;46.804;11.580;2023-02-18T01:10:48;-21023.84;;;5.72;100.00
12486;BME280;6307;46.804;11.580;2023-02-18T01:13:17;-21033.94;;;6.05;100.00
12486;BME280;6307;46.804;11.580;2023-02-18T01:15:43;-21038.47;;;6.20;100.00
12486;BME280;6307;46.804;11.580;2023-02-18T01:18:11;-21040.56;;;6.27;100.00
12486;BME280;6307;46.804;11.580;2023-02-18T01:20:39;-21039.50;;;6.24;100.00
12486;BME280;6307;46.804;11.580;2023-02-18T01:23:06;-21034.25;;;6.06;98.19
12486;BME280;6307;46.804;11.580;2023-02-18T01:25:34;-21025.97;;;5.79;100.00
12486;BME280;6307;46.804;11.580;2023-02-18T01:28:01;-21023.09;;;5.69;100.00
12486;BME280;6307;46.804;11.580;2023-02-18T01:30:28;-21022.66;;;5.68;100.00
12486;BME280;6307;46.804;11.580;2023-02-18T01:32:55;-21023.84;;;5.72;100.00
12486;BME280;6307;46.804;11.580;2023-02-18T01:35:22;-21028.22;;;5.86;100.00
12486;BME280;6307;46.804;11.580;2023-02-18T01:37:49;-21031.38;;;5.97;100.00
12486;BME280;6307;46.804;11.580;2023-02-18T01:40:20;-21031.69;;;5.98;100.00
12486;BME280;6307;46.804;11.580;2023-02-18T01:42:49;-21032.59;;;6.01;100.00
12486;BME280;6307;46.804;11.580;2023-02-18T01:50:35;-21040.13;;;6.26;100.00
12486;BME280;6307;46.804;11.580;2023-02-18T01:53:05;-21037.72;;;6.18;100.00
12486;BME280;6307;46.804;11.580;2023-02-18T01:55:33;-21034.69;;;6.08;99.41
12486;BME280;6307;46.804;11.580;2023-02-18T01:57:59;-21029.88;;;5.92;100.00
12486;BME280;6307;46.804;11.580;2023-02-18T02:00:27;-21025.66;;;5.78;100.00
12486;BME280;6307;46.804;11.580;2023-02-18T02:02:53;-21023.25;;;5.70;100.00
12486;BME280;6307;46.804;11.580;2023-02-18T02:05:20;-21019.03;;;5.56;100.00
12486;BME280;6307;46.804;11.580;2023-02-18T02:07:50;-21015.28;;;5.43;100.00
12486;BME280;6307;46.804;11.580;2023-02-18T02:10:18;-21015.88;;;5.45;100.00
12486;BME280;6307;46.804;11.580;2023-02-18T02:13:06;-21022.50;;;5.67;100.00
12486;BME280;6307;46.804;11.580;2023-02-18T02:18:56;-21021.16;;;5.63;100.00
12486;BME280;6307;46.804;11.580;2023-02-18T02:21:45;-21023.09;;;5.69;100.00
12486;BME280;6307;46.804;11.580;2023-02-18T02:27:59;-21021.44;;;5.64;100.00
12486;BME280;6307;46.804;11.580;2023-02-18T02:30:47;-21013.31;;;5.37;100.00
12486;BME280;6307;46.804;11.580;2023-02-18T02:36:23;-21013.63;;;5.38;100.00
12486;BME280;6307;46.804;11.580;2023-02-18T02:38:59;-21025.81;;;5.78;100.00
12486;BME280;6307;46.804;11.580;2023-02-18T02:45:15;-21026.28;;;5.80;100.00
12486;BME280;6307;46.804;11.580;2023-02-18T02:51:10;-21039.06;;;6.22;100.00
12486;BME280;6307;46.804;11.580;2023-02-18T02:53:46;-21025.50;;;5.77;100.00
12486;BME280;6307;46.804;11.580;2023-02-18T02:56:20;-21026.88;;;5.82;100.00
12486;BME280;6307;46.804;11.580;2023-02-18T02:58:59;-21035.91;;;6.12;100.00
12486;BME280;6307;46.804;11.580;2023-02-18T03:01:35;-21032.44;;;6.00;100.00
12486;BME280;6307;46.804;11.580;2023-02-18T03:10:10;-21044.63;;;6.41;100.00
12486;BME280;6307;46.804;11.580;2023-02-18T03:13:08;-21050.19;;;6.59;98.30
12486;BME280;6307;46.804;11.580;2023-02-18T03:21:52;-21033.03;;;6.02;100.00
12486;BME280;6307;46.804;11.580;2023-02-18T03:24:28;-21037.41;;;6.17;100.00
12486;BME280;6307;46.804;11.580;2023-02-18T03:27:09;-21046.88;;;6.48;100.00
12486;BME280;6307;46.804;11.580;2023-02-18T03:29:45;-21047.94;;;6.52;100.00
12486;BME280;6307;46.804;11.580;2023-02-18T03:32:19;-21046.72;;;6.48;100.00
12486;BME280;6307;46.804;11.580;2023-02-18T03:34:50;-21053.94;;;6.72;100.00
12486;BME280;6307;46.804;11.580;2023-02-18T03:37:19;-21044.47;;;6.40;100.00
12486;BME280;6307;46.804;11.580;2023-02-18T03:39:49;-21044.78;;;6.41;100.00
12486;BME280;6307;46.804;11.580;2023-02-18T03:42:24;-21049.59;;;6.57;100.00
12486;BME280;6307;46.804;11.580;2023-02-18T03:44:54;-21040.88;;;6.28;100.00
12486;BME280;6307;46.804;11.580;2023-02-18T03:47:20;-21040.72;;;6.28;100.00
12486;BME280;6307;46.804;11.580;2023-02-18T03:49:48;-21039.97;;;6.25;100.00
12486;BME280;6307;46.804;11.580;2023-02-18T03:52:14;-21032.28;;;6.00;100.00
12486;BME280;6307;46.804;11.580;2023-02-18T03:54:40;-21040.41;;;6.27;100.00
12486;BME280;6307;46.804;11.580;2023-02-18T03:57:06;-21042.81;;;6.35;100.00
12486;BME280;6307;46.804;11.580;2023-02-18T03:59:33;-21048.25;;;6.53;100.00
12486;BME280;6307;46.804;11.580;2023-02-18T04:01:59;-21047.78;;;6.51;100.00
12486;BME280;6307;46.804;11.580;2023-02-18T04:04:27;-21042.22;;;6.33;100.00
12486;BME280;6307;46.804;11.580;2023-02-18T04:06:53;-21035.59;;;6.11;100.00
12486;BME280;6307;46.804;11.580;2023-02-18T04:09:19;-21033.94;;;6.05;100.00
12486;BME280;6307;46.804;11.580;2023-02-18T04:11:45;-21030.78;;;5.95;100.00
12486;BME280;6307;46.804;11.580;2023-02-18T04:14:12;-21034.69;;;6.08;100.00
12486;BME280;6307;46.804;11.580;2023-02-18T04:16:40;-21044.47;;;6.40;100.00
12486;BME280;6307;46.804;11.580;2023-02-18T04:19:06;-21047.50;;;6.50;100.00
12486;BME280;6307;46.804;11.580;2023-02-18T04:21:33;-21046.72;;;6.48;100.00
12486;BME280;6307;46.804;11.580;2023-02-18T04:23:59;-21056.34;;;6.80;100.00
12486;BME280;6307;46.804;11.580;2023-02-18T04:26:26;-21065.97;;;7.12;100.00
12486;BME280;6307;46.804;11.580;2023-02-18T04:28:53;-21061.94;;;6.98;100.00
12486;BME280;6307;46.804;11.580;2023-02-18T04:31:19;-21066.59;;;7.14;100.00
12486;BME280;6307;46.804;11.580;2023-02-18T04:33:45;-21065.22;;;7.09;100.00
12486;BME280;6307;46.804;11.580;2023-02-18T04:36:11;-21059.06;;;6.89;100.00
12486;BME280;6307;46.804;11.580;2023-02-18T04:38:37;-21058.63;;;6.87;100.00
12486;BME280;6307;46.804;11.580;2023-02-18T04:41:04;-21060.88;;;6.95;100.00
12486;BME280;6307;46.804;11.580;2023-02-18T04:43:30;-21056.50;;;6.80;100.00
12486;BME280;6307;46.804;11.580;2023-02-18T04:45:56;-21066.28;;;7.13;100.00
12486;BME280;6307;46.804;11.580;2023-02-18T04:48:22;-21069.00;;;7.22;100.00
12486;BME280;6307;46.804;11.580;2023-02-18T04:50:48;-21067.78;;;7.18;100.00
12486;BME280;6307;46.804;11.580;2023-02-18T04:53:14;-21063.88;;;7.05;100.00
12486;BME280;6307;46.804;11.580;2023-02-18T04:55:40;-21056.34;;;6.80;100.00
12486;BME280;6307;46.804;11.580;2023-02-18T04:58:07;-21047.50;;;6.50;100.00
12486;BME280;6307;46.804;11.580;2023-02-18T05:00:34;-21050.03;;;6.59;100.00
12486;BME280;6307;46.804;11.580;2023-02-18T05:03:00;-21044.78;;;6.41;100.00
12486;BME280;6307;46.804;11.580;2023-02-18T05:05:26;-21032.75;;;6.01;100.00
12486;BME280;6307;46.804;11.580;2023-02-18T05:07:52;-21054.25;;;6.73;100.00
12486;BME280;6307;46.804;11.580;2023-02-18T05:10:19;-21054.25;;;6.73;100.00
12486;BME280;6307;46.804;11.580;2023-02-18T05:12:45;-21049.13;;;6.56;100.00
12486;BME280;6307;46.804;11.580;2023-02-18T05:15:11;-21052.59;;;6.67;100.00
12486;BME280;6307;46.804;11.580;2023-02-18T05:17:38;-21041.47;;;6.30;100.00
12486;BME280;6307;46.804;11.580;2023-02-18T05:20:05;-21035.00;;;6.09;100.00
12486;BME280;6307;46.804;11.580;2023-02-18T05:22:31;-21036.97;;;6.15;100.00
12486;BME280;6307;46.804;11.580;2023-02-18T05:24:58;-21045.53;;;6.44;100.00
12486;BME280;6307;46.804;11.580;2023-02-18T05:27:24;-21051.25;;;6.63;100.00
12486;BME280;6307;46.804;11.580;2023-02-18T05:29:50;-21044.78;;;6.41;100.00
12486;BME280;6307;46.804;11.580;2023-02-18T05:32:16;-21049.44;;;6.57;100.00
12486;BME280;6307;46.804;11.580;2023-02-18T05:34:42;-21048.25;;;6.53;100.00
12486;BME280;6307;46.804;11.580;2023-02-18T05:37:08;-21047.34;;;6.50;100.00
12486;BME280;6307;46.804;11.580;2023-02-18T05:39:34;-21047.63;;;6.51;100.00
12486;BME280;6307;46.804;11.580;2023-02-18T05:42:00;-21048.84;;;6.55;100.00
12486;BME280;6307;46.804;11.580;2023-02-18T05:44:26;-21048.09;;;6.52;100.00
12486;BME280;6307;46.804;11.580;2023-02-18T05:47:02;-21051.53;;;6.64;100.00
12486;BME280;6307;46.804;11.580;2023-02-18T05:49:31;-21051.25;;;6.63;100.00
12486;BME280;6307;46.804;11.580;2023-02-18T05:51:59;-21045.81;;;6.45;100.00
12486;BME280;6307;46.804;11.580;2023-02-18T05:54:26;-21034.69;;;6.08;100.00
12486;BME280;6307;46.804;11.580;2023-02-18T05:56:53;-21038.47;;;6.20;100.00
12486;BME280;6307;46.804;11.580;2023-02-18T05:59:20;-21045.53;;;6.44;100.00
12486;BME280;6307;46.804;11.580;2023-02-18T06:01:47;-21047.63;;;6.51;100.00
12486;BME280;6307;46.804;11.580;2023-02-18T06:04:14;-21043.44;;;6.37;100.00
12486;BME280;6307;46.804;11.580;2023-02-18T06:06:40;-21038.00;;;6.19;100.00
12486;BME280;6307;46.804;11.580;2023-02-18T06:09:08;-21035.44;;;6.10;100.00
12486;BME280;6307;46.804;11.580;2023-02-18T06:11:34;-21033.50;;;6.04;100.00
12486;BME280;6307;46.804;11.580;2023-02-18T06:14:01;-21025.97;;;5.79;100.00
12486;BME280;6307;46.804;11.580;2023-02-18T06:16:28;-21035.59;;;6.11;100.00
12486;BME280;6307;46.804;11.580;2023-02-18T06:18:55;-21035.75;;;6.11;100.00
12486;BME280;6307;46.804;11.580;2023-02-18T06:21:22;-21015.59;;;5.44;100.00
12486;BME280;6307;46.804;11.580;2023-02-18T06:23:48;-21025.06;;;5.76;100.00
12486;BME280;6307;46.804;11.580;2023-02-18T06:26:15;-21032.91;;;6.02;100.00
12486;BME280;6307;46.804;11.580;2023-02-18T06:28:41;-21042.53;;;6.34;100.00
12486;BME280;6307;46.804;11.580;2023-02-18T06:31:07;-21043.88;;;6.38;100.00
12486;BME280;6307;46.804;11.580;2023-02-18T06:33:33;-21040.88;;;6.28;100.00
12486;BME280;6307;46.804;11.580;2023-02-18T06:36:05;-21039.38;;;6.23;100.00
12486;BME280;6307;46.804;11.580;2023-02-18T06:38:36;-21032.75;;;6.01;100.00
12486;BME280;6307;46.804;11.580;2023-02-18T06:41:03;-21041.63;;;6.31;100.00
12486;BME280;6307;46.804;11.580;2023-02-18T06:43:29;-21042.53;;;6.34;100.00
12486;BME280;6307;46.804;11.580;2023-02-18T06:45:55;-21040.41;;;6.27;100.00
12486;BME280;6307;46.804;11.580;2023-02-18T06:48:22;-21040.56;;;6.27;100.00
12486;BME280;6307;46.804;11.580;2023-02-18T06:50:49;-21050.94;;;6.62;100.00
12486;BME280;6307;46.804;11.580;2023-02-18T06:53:15;-21056.66;;;6.81;100.00
12486;BME280;6307;46.804;11.580;2023-02-18T06:55:42;-21058.00;;;6.85;100.00
12486;BME280;6307;46.804;11.580;2023-02-18T06:58:13;-21063.88;;;7.05;100.00
12486;BME280;6307;46.804;11.580;2023-02-18T07:00:39;-21055.00;;;6.75;100.00
12486;BME280;6307;46.804;11.580;2023-02-18T07:03:06;-21055.31;;;6.76;100.00
12486;BME280;6307;46.804;11.580;2023-02-18T07:05:33;-21049.91;;;6.58;100.00
12486;BME280;6307;46.804;11.580;2023-02-18T07:07:59;-21060.41;;;6.93;100.00
12486;BME280;6307;46.804;11.580;2023-02-18T07:10:26;-21060.88;;;6.95;100.00
12486;BME280;6307;46.804;11.580;2023-02-18T07:12:52;-21066.88;;;7.15;100.00
12486;BME280;6307;46.804;11.580;2023-02-18T07:15:18;-21064.94;;;7.08;100.00
12486;BME280;6307;46.804;11.580;2023-02-18T07:17:49;-21063.88;;;7.05;100.00
12486;BME280;6307;46.804;11.580;2023-02-18T07:20:16;-21055.47;;;6.77;100.00
12486;BME280;6307;46.804;11.580;2023-02-18T07:22:42;-21061.31;;;6.96;100.00
12486;BME280;6307;46.804;11.580;2023-02-18T07:25:08;-21054.25;;;6.73;100.00
12486;BME280;6307;46.804;11.580;2023-02-18T07:27:35;-21062.38;;;7.00;100.00
12486;BME280;6307;46.804;11.580;2023-02-18T07:30:01;-21052.16;;;6.66;100.00
12486;BME280;6307;46.804;11.580;2023-02-18T07:32:27;-21062.06;;;6.99;100.00
12486;BME280;6307;46.804;11.580;2023-02-18T07:34:53;-21064.47;;;7.07;100.00
12486;BME280;6307;46.804;11.580;2023-02-18T07:37:19;-21067.47;;;7.17;100.00
12486;BME280;6307;46.804;11.580;2023-02-18T07:39:46;-21068.69;;;7.21;100.00
12486;BME280;6307;46.804;11.580;2023-02-18T07:42:12;-21070.50;;;7.27;100.00
12486;BME280;6307;46.804;11.580;2023-02-18T07:44:39;-21072.75;;;7.34;100.00
12486;BME280;6307;46.804;11.580;2023-02-18T07:47:06;-21074.41;;;7.39;100.00
12486;BME280;6307;46.804;11.580;2023-02-18T07:49:34;-21074.53;;;7.40;100.00
12486;BME280;6307;46.804;11.580;2023-02-18T07:52:00;-21073.06;;;7.35;100.00
12486;BME280;6307;46.804;11.580;2023-02-18T07:54:27;-21075.00;;;7.41;100.00
12486;BME280;6307;46.804;11.580;2023-02-18T07:56:53;-21080.41;;;7.59;98.25
12486;BME280;6307;46.804;11.580;2023-02-18T07:59:19;-21083.41;;;7.69;97.17
12486;BME280;6307;46.804;11.580;2023-02-18T08:01:45;-21080.25;;;7.59;98.88
12486;BME280;6307;46.804;11.580;2023-02-18T08:04:11;-21084.63;;;7.73;95.69
12486;BME280;6307;46.804;11.580;2023-02-18T08:06:41;-21080.72;;;7.60;98.65
12486;BME280;6307;46.804;11.580;2023-02-18T08:09:13;-21081.47;;;7.63;98.03
12486;BME280;6307;46.804;11.580;2023-02-18T08:11:42;-21082.50;;;7.66;98.60
12486;BME280;6307;46.804;11.580;2023-02-18T08:14:08;-21083.13;;;7.68;96.64
12486;BME280;6307;46.804;11.580;2023-02-18T08:16:35;-21082.22;;;7.65;97.91
12486;BME280;6307;46.804;11.580;2023-02-18T08:19:01;-21086.41;;;7.79;97.13
12486;BME280;6307;46.804;11.580;2023-02-18T08:21:28;-21086.28;;;7.79;97.64
12486;BME280;6307;46.804;11.580;2023-02-18T08:23:56;-21090.78;;;7.94;96.75
12486;BME280;6307;46.804;11.580;2023-02-18T08:26:23;-21093.63;;;8.03;95.71
12486;BME280;6307;46.804;11.580;2023-02-18T08:28:49;-21093.63;;;8.03;96.97
12486;BME280;6307;46.804;11.580;2023-02-18T08:31:21;-21097.84;;;8.17;95.45
12486;BME280;6307;46.804;11.580;2023-02-18T08:33:50;-21105.97;;;8.44;92.37
12486;BME280;6307;46.804;11.580;2023-02-18T08:36:17;-21110.91;;;8.61;89.85
12486;BME280;6307;46.804;11.580;2023-02-18T08:38:44;-21116.16;;;8.78;88.35
12486;BME280;6307;46.804;11.580;2023-02-18T08:41:11;-21106.25;;;8.45;89.71
12486;BME280;6307;46.804;11.580;2023-02-18T08:43:39;-21106.25;;;8.45;91.24
12486;BME280;6307;46.804;11.580;2023-02-18T08:46:05;-21130.88;;;9.27;84.23
12486;BME280;6307;46.804;11.580;2023-02-18T08:48:32;-21138.97;;;9.54;81.56
12486;BME280;6307;46.804;11.580;2023-02-18T08:50:58;-21155.66;;;10.10;79.25
12486;BME280;6307;46.804;11.580;2023-02-18T08:53:24;-21163.16;;;10.35;75.79
12486;BME280;6307;46.804;11.580;2023-02-18T08:55:51;-21167.66;;;10.50;76.22
12486;BME280;6307;46.804;11.580;2023-02-18T08:58:17;-21165.53;;;10.43;72.28
12486;BME280;6307;46.804;11.580;2023-02-18T09:00:43;-21163.75;;;10.37;71.75
12486;BME280;6307;46.804;11.580;2023-02-18T09:03:14;-21171.25;;;10.62;72.53
12486;BME280;6307;46.804;11.580;2023-02-18T09:05:40;-21167.19;;;10.48;72.50
12486;BME280;6307;46.804;11.580;2023-02-18T09:08:07;-21169.00;;;10.54;75.73
12486;BME280;6307;46.804;11.580;2023-02-18T09:10:33;-21172.59;;;10.66;74.73
12486;BME280;6307;46.804;11.580;2023-02-18T09:12:59;-21173.19;;;10.68;72.93
12486;BME280;6307;46.804;11.580;2023-02-18T09:15:26;-21179.03;;;10.88;73.08
12486;BME280;6307;46.804;11.580;2023-02-18T09:17:52;-21179.03;;;10.88;72.70
12486;BME280;6307;46.804;11.580;2023-02-18T09:20:18;-21177.38;;;10.82;74.27
12486;BME280;6307;46.804;11.580;2023-02-18T09:22:44;-21176.78;;;10.80;74.70
12486;BME280;6307;46.804;11.580;2023-02-18T09:25:10;-21173.78;;;10.70;71.41
12486;BME280;6307;46.804;11.580;2023-02-18T09:27:36;-21174.53;;;10.73;72.52
12486;BME280;6307;46.804;11.580;2023-02-18T09:30:04;-21173.94;;;10.71;73.89
12486;BME280;6307;46.804;11.580;2023-02-18T09:32:31;-21166.88;;;10.47;72.00
12486;BME280;6307;46.804;11.580;2023-02-18T09:34:57;-21162.09;;;10.31;73.90
12486;BME280;6307;46.804;11.580;2023-02-18T09:37:23;-21162.41;;;10.32;75.83
12486;BME280;6307;46.804;11.580;2023-02-18T09:39:49;-21164.34;;;10.39;75.72
12486;BME280;6307;46.804;11.580;2023-02-18T09:42:17;-21165.41;;;10.42;74.98
12486;BME280;6307;46.804;11.580;2023-02-18T09:44:53;-21160.16;;;10.25;77.02
12486;BME280;6307;46.804;11.580;2023-02-18T09:47:39;-21166.75;;;10.47;76.19
12486;BME280;6307;46.804;11.580;2023-02-18T09:50:28;-21166.88;;;10.47;74.79
12486;BME280;6307;46.804;11.580;2023-02-18T09:53:02;-21164.19;;;10.38;76.13
12486;BME280;6307;46.804;11.580;2023-02-18T09:55:32;-21167.34;;;10.49;75.65
12486;BME280;6307;46.804;11.580;2023-02-18T09:58:35;-21161.66;;;10.30;77.33
12486;BME280;6307;46.804;11.580;2023-02-18T10:01:05;-21164.50;;;10.39;77.63
12486;BME280;6307;46.804;11.580;2023-02-18T10:03:40;-21173.50;;;10.69;75.07
12486;BME280;6307;46.804;11.580;2023-02-18T10:06:17;-21173.34;;;10.69;73.93
12486;BME280;6307;46.804;11.580;2023-02-18T10:08:51;-21169.16;;;10.55;76.23
12486;BME280;6307;46.804;11.580;2023-02-18T10:11:29;-21163.75;;;10.37;75.94
12486;BME280;6307;46.804;11.580;2023-02-18T10:13:56;-21168.09;;;10.51;76.67
12486;BME280;6307;46.804;11.580;2023-02-18T10:16:25;-21171.41;;;10.62;75.14
12486;BME280;6307;46.804;11.580;2023-02-18T10:18:54;-21178.00;;;10.84;72.84
12486;BME280;6307;46.804;11.580;2023-02-18T10:21:28;-21180.09;;;10.91;71.17
12486;BME280;6307;46.804;11.580;2023-02-18T10:24:24;-21188.63;;;11.20;70.04
12486;BME280;6307;46.804;11.580;2023-02-18T10:26:57;-21187.13;;;11.15;70.91
12486;BME280;6307;46.804;11.580;2023-02-18T10:29:25;-21189.53;;;11.23;69.43
12486;BME280;6307;46.804;11.580;2023-02-18T10:34:52;-21194.63;;;11.40;69.13
12486;BME280;6307;46.804;11.580;2023-02-18T10:37:59;-21192.38;;;11.32;69.06
12486;BME280;6307;46.804;11.580;2023-02-18T10:41:06;-21193.13;;;11.35;68.10
12486;BME280;6307;46.804;11.580;2023-02-18T10:49:46;-21204.66;;;11.73;66.40
12486;BME280;6307;46.804;11.580;2023-02-18T10:52:22;-21206.31;;;11.79;65.39
12486;BME280;6307;46.804;11.580;2023-02-18T10:57:31;-21219.19;;;12.22;64.43
12486;BME280;6307;46.804;11.580;2023-02-18T11:03:17;-21229.09;;;12.55;60.25
12486;BME280;6307;46.804;11.580;2023-02-18T11:05:47;-21228.78;;;12.54;62.41
12486;BME280;6307;46.804;11.580;2023-02-18T11:08:20;-21249.75;;;13.24;61.58
12486;BME280;6307;46.804;11.580;2023-02-18T11:10:49;-21259.16;;;13.55;58.36
12486;BME280;6307;46.804;11.580;2023-02-18T11:13:25;-21264.09;;;13.72;54.04
12486;BME280;6307;46.804;11.580;2023-02-18T11:16:00;-21232.06;;;12.65;54.36
12486;BME280;6307;46.804;11.580;2023-02-18T11:18:41;-21225.94;;;12.44;55.13
12486;BME280;6307;46.804;11.580;2023-02-18T11:21:22;-21222.03;;;12.31;54.57
12486;BME280;6307;46.804;11.580;2023-02-18T11:23:54;-21244.97;;;13.08;57.02
12486;BME280;6307;46.804;11.580;2023-02-18T11:26:31;-21257.66;;;13.50;52.11
12486;BME280;6307;46.804;11.580;2023-02-18T11:29:23;-21240.31;;;12.92;52.26
12486;BME280;6307;46.804;11.580;2023-02-18T11:31:59;-21229.38;;;12.56;54.23
12486;BME280;6307;46.804;11.580;2023-02-18T11:34:28;-21226.69;;;12.47;54.46
12486;BME280;6307;46.804;11.580;2023-02-18T11:37:08;-21233.72;;;12.70;53.36
12486;BME280;6307;46.804;11.580;2023-02-18T11:39:43;-21242.72;;;13.00;52.75
12486;BME280;6307;46.804;11.580;2023-02-18T11:42:13;-21263.06;;;13.68;53.33
12486;BME280;6307;46.804;11.580;2023-02-18T11:44:56;-21279.97;;;14.25;51.75
12486;BME280;6307;46.804;11.580;2023-02-18T11:47:41;-21280.41;;;14.26;49.57
12486;BME280;6307;46.804;11.580;2023-02-18T11:52:38;-21295.34;;;14.76;45.87
12486;BME280;6307;46.804;11.580;2023-02-18T11:55:21;-21298.19;;;14.86;48.49
12486;BME280;6307;46.804;11.580;2023-02-18T11:58:03;-21302.69;;;15.01;45.32
12486;BME280;6307;46.804;11.580;2023-02-18T12:00:47;-21304.16;;;15.06;44.74
12486;BME280;6307;46.804;11.580;2023-02-18T12:05:59;-21309.09;;;15.22;43.83
12486;BME280;6307;46.804;11.580;2023-02-18T12:08:32;-21316.56;;;15.47;45.37
12486;BME280;6307;46.804;11.580;2023-02-18T12:11:15;-21319.72;;;15.58;43.86
12486;BME280;6307;46.804;11.580;2023-02-18T12:13:54;-21313.13;;;15.36;44.67
12486;BME280;6307;46.804;11.580;2023-02-18T12:21:57;-21327.78;;;15.85;43.47
12486;BME280;6307;46.804;11.580;2023-02-18T12:31:17;-21323.44;;;15.70;41.74
12486;BME280;6307;46.804;11.580;2023-02-18T12:56:58;-21300.00;;;14.92;49.13
12486;BME280;6307;46.804;11.580;2023-02-18T13:10:26;-21285.03;;;14.42;51.68
12486;BME280;6307;46.804;11.580;2023-02-18T13:15:40;-21296.53;;;14.80;49.99
12486;BME280;6307;46.804;11.580;2023-02-18T13:18:15;-21298.94;;;14.88;50.78
12486;BME280;6307;46.804;11.580;2023-02-18T13:20:51;-21295.94;;;14.78;48.84
12486;BME280;6307;46.804;11.580;2023-02-18T13:23:31;-21293.72;;;14.71;48.82
12486;BME280;6307;46.804;11.580;2023-02-18T13:26:03;-21295.34;;;14.76;49.08
12486;BME280;6307;46.804;11.580;2023-02-18T13:32:06;-21295.06;;;14.75;49.34
12486;BME280;6307;46.804;11.580;2023-02-18T13:34:46;-21287.44;;;14.50;51.14
12486;BME280;6307;46.804;11.580;2023-02-18T13:39:54;-21279.22;;;14.22;53.56
12486;BME280;6307;46.804;11.580;2023-02-18T13:42:35;-21288.94;;;14.55;50.84
12486;BME280;6307;46.804;11.580;2023-02-18T13:45:05;-21288.47;;;14.53;52.24
12486;BME280;6307;46.804;11.580;2023-02-18T13:47:49;-21290.88;;;14.61;50.28
12486;BME280;6307;46.804;11.580;2023-02-18T13:50:24;-21292.22;;;14.66;49.49
12486;BME280;6307;46.804;11.580;2023-02-18T13:58:18;-21290.56;;;14.60;52.79
12486;BME280;6307;46.804;11.580;2023-02-18T14:01:05;-21285.50;;;14.43;53.61
12486;BME280;6307;46.804;11.580;2023-02-18T14:11:46;-21281.47;;;14.30;51.93
12486;BME280;6307;46.804;11.580;2023-02-18T14:19:42;-21285.34;;;14.43;51.16
12486;BME280;6307;46.804;11.580;2023-02-18T14:25:13;-21270.69;;;13.94;53.06
12486;BME280;6307;46.804;11.580;2023-02-18T14:27:44;-21266.66;;;13.80;51.02
12486;BME280;6307;46.804;11.580;2023-02-18T14:32:50;-21267.09;;;13.82;50.62
12486;BME280;6307;46.804;11.580;2023-02-18T14:37:57;-21257.97;;;13.51;53.04
12486;BME280;6307;46.804;11.580;2023-02-18T14:41:16;-21258.28;;;13.52;52.94
12486;BME280;6307;46.804;11.580;2023-02-18T14:49:43;-21249.16;;;13.22;56.74
12486;BME280;6307;46.804;11.580;2023-02-18T14:55:04;-21253.19;;;13.35;53.79
12486;BME280;6307;46.804;11.580;2023-02-18T14:57:59;-21253.34;;;13.36;54.47
12486;BME280;6307;46.804;11.580;2023-02-18T15:00:33;-21251.38;;;13.29;56.22
12486;BME280;6307;46.804;11.580;2023-02-18T15:03:11;-21250.34;;;13.26;55.50
12486;BME280;6307;46.804;11.580;2023-02-18T15:05:39;-21239.25;;;12.89;54.98
12486;BME280;6307;46.804;11.580;2023-02-18T15:10:48;-21238.81;;;12.87;57.65
12486;BME280;6307;46.804;11.580;2023-02-18T15:13:24;-21236.56;;;12.80;58.00
12486;BME280;6307;46.804;11.580;2023-02-18T15:15:56;-21231.94;;;12.64;58.08
12486;BME280;6307;46.804;11.580;2023-02-18T15:18:48;-21235.38;;;12.76;59.36
12486;BME280;6307;46.804;11.580;2023-02-18T15:27:00;-21230.28;;;12.59;60.27
12486;BME280;6307;46.804;11.580;2023-02-18T15:29:34;-21238.81;;;12.87;58.65
12486;BME280;6307;46.804;11.580;2023-02-18T15:32:14;-21234.31;;;12.72;59.62
12486;BME280;6307;46.804;11.580;2023-02-18T15:34:49;-21233.44;;;12.69;59.21
12486;BME280;6307;46.804;11.580;2023-02-18T15:37:17;-21235.38;;;12.76;58.28
12486;BME280;6307;46.804;11.580;2023-02-18T15:39:45;-21231.19;;;12.62;58.78
12486;BME280;6307;46.804;11.580;2023-02-18T15:44:45;-21228.34;;;12.52;60.12